Time;durP1;ratioP1;P1;durP2;ratioP2;P2;SDS_P1;SDS_P2;PMS_P1;PMS_P2;Temp;Humidity;BMP_temperature;BMP_pressure;BME280_temperature;BME280_humidity;BME280_pressure;Samples;Min_cycle;Max_cycle;Signal;HPM_P1;HPM_P2
2022/03/25 00:01:26;;;;;;;83.95;50.92;;;6.60;99.90;;;;;;5051232;28;20132;-77
2022/03/25 00:03:52;;;;;;;80.97;49.65;;;6.50;99.90;;;;;;5033158;28;20120;-76
2022/03/25 00:06:18;;;;;;;76.65;48.20;;;6.60;99.90;;;;;;5051622;28;20057;-76
2022/03/25 00:08:43;;;;;;;83.47;48.97;;;6.50;99.90;;;;;;5051129;28;20064;-76
2022/03/25 00:11:09;;;;;;;82.63;50.22;;;6.50;99.90;;;;;;5050079;28;20407;-77
2022/03/25 00:13:34;;;;;;;83.95;50.13;;;6.40;99.90;;;;;;5049872;28;20089;-76
2022/03/25 00:16:00;;;;;;;79.47;49.40;;;6.30;99.90;;;;;;5050365;28;20099;-77
2022/03/25 00:18:26;;;;;;;90.63;50.90;;;6.40;99.90;;;;;;5048466;28;20049;-77
2022/03/25 00:20:51;;;;;;;76.75;48.10;;;6.30;99.90;;;;;;5045566;28;20041;-77
2022/03/25 00:23:17;;;;;;;84.78;50.10;;;6.30;99.90;;;;;;5051106;28;20616;-77
2022/03/25 00:25:42;;;;;;;80.55;47.92;;;6.30;99.90;;;;;;5044636;28;20512;-77
2022/03/25 00:28:08;;;;;;;80.57;49.22;;;6.20;99.90;;;;;;5049952;28;20352;-77
2022/03/25 00:30:34;;;;;;;76.22;47.30;;;6.20;99.90;;;;;;5051812;28;20180;-77
2022/03/25 00:32:59;;;;;;;81.13;47.97;;;6.20;99.90;;;;;;5034437;28;20049;-78
2022/03/25 00:35:26;;;;;;;80.47;47.65;;;6.20;99.90;;;;;;5026863;28;20547;-77
2022/03/25 00:37:51;;;;;;;76.97;46.88;;;6.20;99.90;;;;;;5050350;28;20072;-77
2022/03/25 00:40:17;;;;;;;74.68;45.53;;;6.20;99.90;;;;;;5051448;28;20389;-78
2022/03/25 00:42:43;;;;;;;77.00;47.97;;;6.20;99.90;;;;;;5050211;28;20053;-78
2022/03/25 00:45:08;;;;;;;78.65;46.58;;;6.20;99.90;;;;;;5052060;28;20033;-78
2022/03/25 00:47:36;;;;;;;74.13;46.05;;;6.10;99.90;;;;;;5049261;28;20102;-77
2022/03/25 00:50:02;;;;;;;73.22;45.08;;;6.10;99.90;;;;;;5048302;28;20124;-78
2022/03/25 00:52:28;;;;;;;79.82;47.10;;;6.10;99.90;;;;;;5044300;28;20041;-78
2022/03/25 00:54:54;;;;;;;78.70;46.83;;;6.10;99.90;;;;;;5048648;28;20049;-78
2022/03/25 00:57:19;;;;;;;76.95;46.25;;;6.00;99.90;;;;;;5050922;28;20048;-78
2022/03/25 00:59:45;;;;;;;74.45;45.33;;;6.00;99.90;;;;;;5046621;28;20095;-78
2022/03/25 01:02:11;;;;;;;80.10;48.05;;;6.00;99.90;;;;;;5051365;28;20037;-78
2022/03/25 01:04:37;;;;;;;81.38;47.03;;;5.90;99.90;;;;;;5048969;28;20094;-77
2022/03/25 01:07:04;;;;;;;76.57;47.08;;;5.90;99.90;;;;;;5046244;28;20057;-77
2022/03/25 01:09:29;;;;;;;79.15;46.53;;;5.80;99.90;;;;;;5050355;28;20533;-77
2022/03/25 01:11:55;;;;;;;76.82;46.78;;;5.80;99.90;;;;;;5048627;28;20071;-78
2022/03/25 01:14:21;;;;;;;74.70;45.92;;;5.70;99.90;;;;;;5038130;28;20045;-78
2022/03/25 01:16:47;;;;;;;75.82;45.58;;;5.70;99.90;;;;;;5041709;28;20124;-78
2022/03/25 01:19:13;;;;;;;77.40;45.85;;;5.70;99.90;;;;;;5038360;28;20077;-78
2022/03/25 01:21:39;;;;;;;78.57;46.67;;;5.70;99.90;;;;;;5050078;28;20087;-77
2022/03/25 01:24:05;;;;;;;81.88;47.15;;;5.70;99.90;;;;;;5031941;28;20064;-77
2022/03/25 01:26:31;;;;;;;78.93;47.38;;;5.60;99.90;;;;;;5049449;28;20041;-77
2022/03/25 01:28:57;;;;;;;77.25;45.92;;;5.60;99.90;;;;;;5049968;28;20422;-78
2022/03/25 01:31:22;;;;;;;75.57;44.53;;;5.60;99.90;;;;;;5057017;28;20044;-78
2022/03/25 01:33:48;;;;;;;69.97;43.40;;;5.60;99.90;;;;;;5032070;28;20888;-77
2022/03/25 01:36:14;;;;;;;72.85;42.70;;;5.60;99.90;;;;;;5032291;28;20372;-78
2022/03/25 01:38:39;;;;;;;71.95;43.42;;;5.50;99.90;;;;;;5049197;28;20487;-77
2022/03/25 01:41:07;;;;;;;71.25;43.33;;;5.50;99.90;;;;;;5049302;28;20224;-77
2022/03/25 01:43:33;;;;;;;75.15;45.63;;;5.50;99.90;;;;;;5035380;28;20542;-77
2022/03/25 01:45:58;;;;;;;70.65;42.83;;;5.40;99.90;;;;;;5050338;28;20156;-78
2022/03/25 01:48:24;;;;;;;72.40;42.33;;;5.40;99.90;;;;;;5048787;28;20081;-78
2022/03/25 01:50:50;;;;;;;74.95;45.08;;;5.40;99.90;;;;;;5048739;28;20052;-78
2022/03/25 01:53:22;;;;;;;74.20;45.50;;;5.30;99.90;;;;;;5048382;28;20045;-78
2022/03/25 01:55:56;;;;;;;84.45;48.50;;;5.30;99.90;;;;;;5063211;28;20188;-78
2022/03/25 01:58:22;;;;;;;81.85;47.90;;;5.10;99.90;;;;;;5047790;28;20045;-78
2022/03/25 02:00:48;;;;;;;82.60;47.95;;;5.10;99.90;;;;;;5049594;28;20056;-78
2022/03/25 02:03:15;;;;;;;78.40;47.00;;;5.10;99.90;;;;;;5048220;28;20052;-77
2022/03/25 02:05:43;;;;;;;77.68;46.55;;;5.10;99.90;;;;;;5044441;28;20118;-77
2022/03/25 02:08:09;;;;;;;80.82;47.97;;;5.10;99.90;;;;;;5046913;28;20041;-78
2022/03/25 02:10:35;;;;;;;77.40;47.05;;;5.10;99.90;;;;;;5048225;28;20036;-78
2022/03/25 02:13:01;;;;;;;77.80;45.80;;;5.10;99.90;;;;;;5047401;28;20060;-77
2022/03/25 02:15:34;;;;;;;83.43;47.30;;;5.10;99.90;;;;;;5030137;28;20079;-78
2022/03/25 02:18:09;;;;;;;74.28;44.40;;;5.10;99.90;;;;;;5036815;28;20121;-79
2022/03/25 02:20:36;;;;;;;83.32;49.47;;;5.10;99.90;;;;;;5049589;28;20116;-77
2022/03/25 02:23:02;;;;;;;76.88;45.67;;;5.10;99.90;;;;;;5049799;28;20056;-78
2022/03/25 02:25:31;;;;;;;75.93;45.95;;;5.10;99.90;;;;;;5052217;28;20364;-78
2022/03/25 02:27:59;;;;;;;70.72;42.38;;;5.10;99.90;;;;;;5033871;28;20093;-78
2022/03/25 02:30:26;;;;;;;66.00;40.45;;;5.10;99.90;;;;;;5035785;28;20053;-78
2022/03/25 02:32:52;;;;;;;62.83;38.38;;;5.00;99.90;;;;;;5045276;28;20036;-77
2022/03/25 02:35:17;;;;;;;63.00;38.47;;;5.00;99.90;;;;;;5054615;28;20506;-78
2022/03/25 02:37:43;;;;;;;62.20;37.58;;;5.00;99.90;;;;;;5053556;28;20147;-77
2022/03/25 02:40:09;;;;;;;60.97;38.90;;;5.00;99.90;;;;;;5053716;28;20045;-78
2022/03/25 02:42:35;;;;;;;61.00;37.25;;;4.90;99.90;;;;;;5053797;28;20093;-78
2022/03/25 02:45:00;;;;;;;65.55;39.17;;;4.90;99.90;;;;;;5035707;28;20136;-78
2022/03/25 02:47:26;;;;;;;56.60;37.08;;;4.80;99.90;;;;;;5053434;28;20049;-78
2022/03/25 02:49:51;;;;;;;61.40;38.10;;;4.80;99.90;;;;;;5052689;28;20037;-78
2022/03/25 02:52:17;;;;;;;56.35;37.25;;;4.80;99.90;;;;;;5051683;28;20049;-78
2022/03/25 02:54:43;;;;;;;56.13;36.35;;;4.80;99.90;;;;;;5053343;28;20095;-78
2022/03/25 02:57:08;;;;;;;48.33;32.47;;;4.70;99.90;;;;;;5060482;28;20048;-78
2022/03/25 02:59:34;;;;;;;43.47;29.98;;;4.70;99.90;;;;;;5052953;28;20359;-78
2022/03/25 03:02:00;;;;;;;45.42;30.50;;;4.60;99.90;;;;;;5038047;28;20490;-78
2022/03/25 03:04:27;;;;;;;45.05;30.15;;;4.60;99.90;;;;;;5046884;28;20065;-77
2022/03/25 03:06:53;;;;;;;45.25;30.88;;;4.60;99.90;;;;;;5052047;28;20033;-78
2022/03/25 03:09:18;;;;;;;45.28;30.50;;;4.50;99.90;;;;;;5045103;28;20051;-78
2022/03/25 03:11:44;;;;;;;50.75;33.20;;;4.50;99.90;;;;;;5049596;28;20037;-78
2022/03/25 03:14:10;;;;;;;55.85;35.38;;;4.40;99.90;;;;;;5053071;28;20044;-78
2022/03/25 03:16:35;;;;;;;56.55;34.58;;;4.40;99.90;;;;;;5044609;28;20041;-78
2022/03/25 03:19:01;;;;;;;65.68;36.30;;;4.30;99.90;;;;;;5052790;28;20079;-78
2022/03/25 03:21:27;;;;;;;105.25;37.10;;;4.30;99.90;;;;;;5051486;28;20067;-78
2022/03/25 03:23:53;;;;;;;135.10;34.67;;;4.20;99.90;;;;;;5025184;28;20045;-78
2022/03/25 03:26:19;;;;;;;61.50;33.45;;;4.20;99.90;;;;;;5043980;28;20076;-79
2022/03/25 03:28:45;;;;;;;86.53;34.25;;;4.20;99.90;;;;;;5050468;28;20086;-78
2022/03/25 03:31:11;;;;;;;72.00;34.88;;;4.20;99.90;;;;;;5052628;28;20049;-78
2022/03/25 03:33:36;;;;;;;66.50;36.60;;;4.00;99.90;;;;;;5033959;28;20041;-77
2022/03/25 03:36:02;;;;;;;54.88;35.38;;;4.00;99.90;;;;;;5048748;28;20141;-78
2022/03/25 03:38:28;;;;;;;48.75;33.25;;;3.90;99.90;;;;;;5051662;28;20045;-78
2022/03/25 03:40:54;;;;;;;49.80;30.52;;;4.00;99.90;;;;;;5041148;28;20095;-78
2022/03/25 03:43:19;;;;;;;44.00;28.70;;;3.90;99.90;;;;;;5040108;28;20145;-78
2022/03/25 03:45:45;;;;;;;44.72;28.58;;;3.90;99.90;;;;;;5048552;28;20073;-78
2022/03/25 03:48:11;;;;;;;46.05;29.83;;;3.90;99.90;;;;;;5050690;28;20053;-78
2022/03/25 03:50:37;;;;;;;46.25;29.80;;;3.80;99.90;;;;;;5052046;28;20049;-77
2022/03/25 03:53:03;;;;;;;44.67;30.05;;;3.80;99.90;;;;;;5033933;28;20041;-78
2022/03/25 03:55:29;;;;;;;47.42;30.55;;;3.80;99.90;;;;;;5051379;28;20052;-78
2022/03/25 03:57:55;;;;;;;43.95;29.17;;;3.80;99.90;;;;;;5049293;28;20045;-78
2022/03/25 04:00:21;;;;;;;45.60;30.67;;;3.70;99.90;;;;;;5052391;28;20041;-78
2022/03/25 04:02:47;;;;;;;46.00;29.88;;;3.70;99.90;;;;;;5049347;28;20525;-78
2022/03/25 04:05:12;;;;;;;50.00;31.70;;;3.70;99.90;;;;;;5051935;28;20068;-78
2022/03/25 04:07:48;;;;;;;49.35;32.67;;;3.70;99.90;;;;;;5049246;28;20610;-78
2022/03/25 04:10:15;;;;;;;51.13;33.55;;;3.70;99.90;;;;;;5051511;28;20041;-79
2022/03/25 04:12:41;;;;;;;54.67;33.20;;;3.60;99.90;;;;;;5041877;28;20045;-78
2022/03/25 04:15:09;;;;;;;98.13;38.22;;;3.70;99.90;;;;;;5044318;28;20055;-79
2022/03/25 04:17:39;;;;;;;59.05;35.53;;;3.60;99.90;;;;;;5049878;28;20056;-78
2022/03/25 04:20:06;;;;;;;58.60;34.85;;;3.60;99.90;;;;;;5033404;28;20451;-78
2022/03/25 04:22:31;;;;;;;225.95;42.60;;;3.60;99.90;;;;;;5050250;28;20053;-77
2022/03/25 04:24:57;;;;;;;331.73;43.25;;;3.50;99.90;;;;;;5051619;28;20352;-78
2022/03/25 04:27:23;;;;;;;48.53;29.15;;;3.40;99.90;;;;;;5050712;28;20049;-78
2022/03/25 04:29:49;;;;;;;60.67;31.77;;;3.40;99.90;;;;;;5051363;28;20049;-78
2022/03/25 04:32:14;;;;;;;117.18;31.88;;;3.40;99.90;;;;;;5051272;28;20432;-78
2022/03/25 04:34:40;;;;;;;48.63;27.67;;;3.40;99.90;;;;;;5050879;28;20037;-77
2022/03/25 04:37:07;;;;;;;53.72;30.55;;;3.40;99.90;;;;;;5051072;28;20036;-78
2022/03/25 04:39:32;;;;;;;327.65;39.95;;;3.40;99.90;;;;;;5050824;28;20045;-78
2022/03/25 04:41:58;;;;;;;236.30;33.40;;;3.30;99.90;;;;;;5051294;28;20048;-78
2022/03/25 04:44:23;;;;;;;96.82;28.70;;;3.30;99.90;;;;;;5032879;28;20048;-78
2022/03/25 04:46:49;;;;;;;237.43;38.35;;;3.30;99.90;;;;;;5048759;28;20140;-78
2022/03/25 04:49:15;;;;;;;143.98;33.95;;;3.20;99.90;;;;;;5049454;28;20415;-78
2022/03/25 04:51:40;;;;;;;99.30;31.98;;;3.20;99.90;;;;;;5049536;28;20375;-77
2022/03/25 04:54:06;;;;;;;296.85;40.17;;;3.20;99.90;;;;;;5050279;28;20064;-79
2022/03/25 04:56:34;;;;;;;79.47;31.75;;;3.20;99.90;;;;;;5046165;28;20118;-77
2022/03/25 04:59:00;;;;;;;121.53;32.88;;;3.20;99.90;;;;;;5048681;28;20053;-78
2022/03/25 05:01:26;;;;;;;49.30;30.05;;;3.20;99.90;;;;;;5050766;28;20045;-78
2022/03/25 05:03:51;;;;;;;45.67;28.23;;;3.20;99.90;;;;;;5051218;28;20044;-78
2022/03/25 05:06:17;;;;;;;79.28;28.92;;;3.20;99.90;;;;;;5049292;28;20049;-78
2022/03/25 05:08:42;;;;;;;53.85;29.60;;;3.20;99.90;;;;;;5040258;28;20046;-78
2022/03/25 05:11:09;;;;;;;39.92;27.58;;;3.10;99.90;;;;;;5047504;28;20045;-78
2022/03/25 05:13:34;;;;;;;46.95;26.77;;;3.20;99.90;;;;;;5047010;28;20464;-78
2022/03/25 05:16:00;;;;;;;52.78;27.25;;;3.20;99.90;;;;;;5048253;28;20052;-79
2022/03/25 05:18:26;;;;;;;46.45;28.92;;;3.20;99.90;;;;;;5044712;28;20048;-79
2022/03/25 05:20:51;;;;;;;41.72;28.30;;;3.10;99.90;;;;;;5047270;28;20062;-78
2022/03/25 05:23:17;;;;;;;44.78;29.15;;;3.10;99.90;;;;;;5043513;28;20095;-79
2022/03/25 05:25:43;;;;;;;234.20;38.47;;;3.10;99.90;;;;;;5032158;28;20395;-79
2022/03/25 05:28:08;;;;;;;74.80;33.08;;;3.10;99.90;;;;;;5043518;28;20076;-79
2022/03/25 05:30:35;;;;;;;145.38;34.47;;;3.00;99.90;;;;;;5062290;28;20056;-78
2022/03/25 05:33:01;;;;;;;166.93;36.63;;;3.00;99.90;;;;;;5040332;28;20060;-79
2022/03/25 05:35:28;;;;;;;232.13;39.30;;;3.00;99.90;;;;;;5049644;28;20056;-78
2022/03/25 05:37:54;;;;;;;72.60;31.50;;;3.00;99.90;;;;;;5043191;28;20041;-79
2022/03/25 05:40:21;;;;;;;47.10;29.13;;;3.00;99.90;;;;;;5040192;28;20454;-79
2022/03/25 05:42:48;;;;;;;49.60;28.80;;;3.10;99.90;;;;;;5045968;28;20048;-79
2022/03/25 05:45:14;;;;;;;51.65;30.75;;;3.10;99.90;;;;;;5047068;28;20045;-74
2022/03/25 05:47:40;;;;;;;46.10;30.38;;;3.10;99.90;;;;;;5045708;28;20037;-75
2022/03/25 05:50:08;;;;;;;47.47;29.30;;;3.10;99.90;;;;;;5046456;28;20416;-74
2022/03/25 05:52:33;;;;;;;44.08;28.08;;;3.20;99.90;;;;;;5039872;28;20046;-74
2022/03/25 05:54:59;;;;;;;122.80;31.42;;;3.20;99.90;;;;;;5045927;28;20043;-80
2022/03/25 05:57:25;;;;;;;45.00;28.80;;;3.10;99.90;;;;;;5051276;28;20049;-81
2022/03/25 05:59:50;;;;;;;49.50;30.35;;;3.10;99.90;;;;;;5053551;28;20131;-81
2022/03/25 06:02:16;;;;;;;55.17;33.00;;;3.10;99.90;;;;;;5044398;28;20041;-80
2022/03/25 06:04:41;;;;;;;45.40;29.85;;;3.10;99.90;;;;;;5054867;28;20440;-76
2022/03/25 06:07:07;;;;;;;46.05;29.08;;;3.10;99.90;;;;;;5043363;28;20514;-75
2022/03/25 06:09:33;;;;;;;46.15;28.95;;;3.20;99.90;;;;;;5044911;28;20048;-80
2022/03/25 06:11:59;;;;;;;42.92;27.92;;;3.20;99.90;;;;;;5049892;28;20077;-81
2022/03/25 06:14:26;;;;;;;53.20;31.00;;;3.20;99.90;;;;;;5053884;28;20032;-79
2022/03/25 06:16:52;;;;;;;48.60;30.60;;;3.20;99.90;;;;;;5061946;28;20067;-81
2022/03/25 06:19:18;;;;;;;44.17;29.10;;;3.20;99.90;;;;;;5036007;28;20049;-81
2022/03/25 06:21:44;;;;;;;46.80;30.77;;;3.30;99.90;;;;;;5043687;28;20041;-83
2022/03/25 06:24:09;;;;;;;43.92;29.13;;;3.30;99.90;;;;;;5055719;28;20064;-79
2022/03/25 06:26:35;;;;;;;42.15;28.77;;;3.40;99.90;;;;;;5051109;28;20380;-79
2022/03/25 06:29:02;;;;;;;44.28;28.70;;;3.40;99.90;;;;;;5047217;28;20041;-79
2022/03/25 06:31:28;;;;;;;40.55;27.40;;;3.50;99.90;;;;;;5046690;28;20044;-79
2022/03/25 06:33:54;;;;;;;43.60;28.27;;;3.50;99.90;;;;;;5050280;28;20035;-78
2022/03/25 06:36:20;;;;;;;43.25;28.27;;;3.60;99.90;;;;;;5050207;28;20699;-78
2022/03/25 06:38:45;;;;;;;49.60;31.30;;;3.60;99.90;;;;;;5050222;28;20091;-79
2022/03/25 06:41:11;;;;;;;45.05;29.92;;;3.50;99.90;;;;;;5045838;28;20388;-78
2022/03/25 06:43:37;;;;;;;47.47;30.80;;;3.60;99.90;;;;;;5052529;28;20041;-78
2022/03/25 06:46:04;;;;;;;46.40;30.60;;;3.70;99.90;;;;;;5050032;28;20049;-80
2022/03/25 06:48:31;;;;;;;53.97;34.47;;;3.70;99.90;;;;;;5063056;28;20037;-82
2022/03/25 06:50:57;;;;;;;51.85;33.40;;;3.70;99.90;;;;;;5058010;28;20048;-79
2022/03/25 06:53:23;;;;;;;49.97;32.40;;;3.70;99.90;;;;;;5048865;28;20443;-79
2022/03/25 06:55:49;;;;;;;56.22;32.67;;;3.70;99.90;;;;;;5032726;28;20098;-79
2022/03/25 06:58:15;;;;;;;52.80;32.85;;;3.70;99.90;;;;;;5045884;28;20045;-77
2022/03/25 07:00:41;;;;;;;52.78;33.38;;;3.80;99.90;;;;;;5033548;28;20057;-79
2022/03/25 07:03:07;;;;;;;51.75;32.17;;;3.90;99.90;;;;;;5047614;28;20057;-77
2022/03/25 07:05:36;;;;;;;53.40;32.85;;;3.90;99.90;;;;;;5047629;28;20053;-81
2022/03/25 07:08:02;;;;;;;53.38;32.38;;;3.90;99.90;;;;;;5048334;28;20407;-81
2022/03/25 07:10:27;;;;;;;49.53;30.95;;;3.90;99.90;;;;;;5049948;28;20116;-80
2022/03/25 07:12:54;;;;;;;52.00;32.05;;;4.00;99.90;;;;;;5053223;28;20081;-81
2022/03/25 07:15:23;;;;;;;54.90;32.53;;;4.00;99.90;;;;;;5052420;28;20439;-81
2022/03/25 07:17:50;;;;;;;52.22;31.27;;;4.10;99.90;;;;;;5034963;28;20060;-81
2022/03/25 07:20:17;;;;;;;53.80;33.03;;;4.20;99.90;;;;;;5051585;28;20097;-80
2022/03/25 07:22:43;;;;;;;52.17;32.85;;;4.20;99.90;;;;;;5051907;28;20425;-81
2022/03/25 07:25:10;;;;;;;51.53;32.92;;;4.30;99.90;;;;;;5053415;28;20041;-81
2022/03/25 07:27:36;;;;;;;52.97;32.17;;;4.40;99.90;;;;;;5052811;28;20068;-80
2022/03/25 07:30:02;;;;;;;57.42;34.42;;;4.40;99.90;;;;;;5052239;28;20048;-83
2022/03/25 07:32:30;;;;;;;56.00;33.42;;;4.50;99.90;;;;;;5051611;28;20041;-81
2022/03/25 07:34:55;;;;;;;55.72;34.08;;;4.60;99.90;;;;;;5041943;28;20326;-82
2022/03/25 07:37:21;;;;;;;59.05;35.60;;;4.70;99.90;;;;;;5040431;28;20143;-82
2022/03/25 07:39:47;;;;;;;55.63;34.25;;;4.80;99.90;;;;;;5051035;28;20471;-83
2022/03/25 07:42:13;;;;;;;60.35;36.53;;;4.90;99.90;;;;;;5051419;28;20049;-78
2022/03/25 07:44:39;;;;;;;60.33;36.75;;;5.00;99.90;;;;;;5048108;28;20121;-77
2022/03/25 07:47:06;;;;;;;56.75;34.80;;;5.10;99.90;;;;;;5051081;28;20037;-83
2022/03/25 07:49:34;;;;;;;54.22;34.45;;;5.30;99.90;;;;;;5058153;28;20714;-80
2022/03/25 07:52:00;;;;;;;57.53;33.55;;;5.30;99.90;;;;;;5031433;28;20146;-80
2022/03/25 07:54:26;;;;;;;60.05;35.05;;;5.50;99.90;;;;;;5051694;28;20053;-78
2022/03/25 07:56:54;;;;;;;57.65;34.50;;;5.50;99.90;;;;;;5057378;28;20046;-78
2022/03/25 07:59:20;;;;;;;51.95;32.80;;;5.70;99.90;;;;;;5032926;28;20049;-77
2022/03/25 08:01:46;;;;;;;53.30;32.75;;;5.80;99.90;;;;;;5044230;28;20033;-77
2022/03/25 08:04:11;;;;;;;51.70;33.22;;;5.90;99.90;;;;;;5051569;28;20147;-77
2022/03/25 08:06:37;;;;;;;53.42;31.95;;;6.00;99.90;;;;;;5055530;28;20048;-79
2022/03/25 08:09:03;;;;;;;57.88;34.55;;;6.20;99.90;;;;;;5072361;28;20104;-78
2022/03/25 08:11:28;;;;;;;55.72;32.50;;;6.30;99.90;;;;;;5034668;28;20044;-78
2022/03/25 08:13:54;;;;;;;54.55;32.78;;;6.40;99.90;;;;;;5031086;28;20467;-79
2022/03/25 08:16:19;;;;;;;57.25;33.10;;;6.50;99.90;;;;;;5051911;28;20047;-78
2022/03/25 08:18:45;;;;;;;52.00;32.00;;;6.60;99.90;;;;;;5051868;28;20168;-78
2022/03/25 08:21:11;;;;;;;58.58;32.40;;;6.80;99.90;;;;;;5050850;28;20098;-78
2022/03/25 08:29:06;;;;;;;50.83;29.92;;;7.10;99.90;;;;;;5050538;28;20048;-79
2022/03/25 08:31:34;;;;;;;50.20;30.85;;;7.20;99.90;;;;;;5052006;28;20057;-79
2022/03/25 08:34:01;;;;;;;51.85;30.40;;;7.30;99.90;;;;;;5049802;28;20061;-79
2022/03/25 08:36:26;;;;;;;44.78;28.88;;;7.40;99.90;;;;;;5050319;28;20446;-79
2022/03/25 08:38:52;;;;;;;48.67;30.67;;;7.50;99.90;;;;;;5051296;28;20057;-78
2022/03/25 08:41:18;;;;;;;45.63;29.55;;;7.70;99.90;;;;;;5050252;28;20081;-79
2022/03/25 08:43:43;;;;;;;45.28;29.33;;;7.80;99.90;;;;;;5051809;28;20045;-79
2022/03/25 08:46:09;;;;;;;45.70;29.33;;;7.90;99.90;;;;;;5041159;28;20029;-79
2022/03/25 08:48:35;;;;;;;47.60;29.63;;;8.00;99.90;;;;;;5046899;28;20109;-79
2022/03/25 08:51:01;;;;;;;48.80;27.40;;;8.10;99.90;;;;;;5031344;28;20124;-79
2022/03/25 08:53:27;;;;;;;44.78;26.73;;;8.20;99.90;;;;;;5056972;28;20682;-79
2022/03/25 08:55:53;;;;;;;45.17;28.00;;;8.30;99.90;;;;;;5050910;28;20059;-79
2022/03/25 08:58:19;;;;;;;46.63;27.65;;;8.40;99.90;;;;;;5050786;28;20045;-78
2022/03/25 09:00:45;;;;;;;44.33;28.40;;;8.50;99.90;;;;;;5049463;28;20181;-79
2022/03/25 09:03:10;;;;;;;43.22;27.40;;;8.70;99.90;;;;;;5035842;28;20520;-78
2022/03/25 09:05:36;;;;;;;42.45;26.63;;;8.80;99.90;;;;;;5049368;28;20183;-78
2022/03/25 09:08:02;;;;;;;44.33;26.33;;;8.90;99.90;;;;;;5032945;28;20068;-79
2022/03/25 09:10:27;;;;;;;44.03;27.30;;;9.00;99.90;;;;;;5049830;28;20041;-79
2022/03/25 09:12:53;;;;;;;43.72;27.50;;;9.10;99.90;;;;;;5050459;28;20049;-79
2022/03/25 09:15:19;;;;;;;43.80;27.13;;;9.20;99.90;;;;;;5031905;28;20045;-79
2022/03/25 09:17:45;;;;;;;41.95;26.65;;;9.30;99.90;;;;;;5050154;28;20040;-79
2022/03/25 09:20:13;;;;;;;45.65;27.27;;;9.50;99.90;;;;;;5049225;28;20043;-79
2022/03/25 09:22:39;;;;;;;42.17;25.52;;;9.60;99.90;;;;;;5050470;28;20060;-79
2022/03/25 09:25:07;;;;;;;41.85;25.58;;;9.70;99.90;;;;;;5048162;28;20064;-79
2022/03/25 09:27:34;;;;;;;40.35;25.00;;;9.80;99.90;;;;;;5050380;28;20040;-79
2022/03/25 09:29:59;;;;;;;41.97;24.98;;;10.00;99.90;;;;;;5050759;28;20071;-78
2022/03/25 09:32:25;;;;;;;42.60;24.83;;;10.10;99.90;;;;;;5067298;28;20071;-79
2022/03/25 09:35:10;;;;;;;37.92;24.63;;;10.30;99.90;;;;;;5069437;28;20094;-78
2022/03/25 09:37:44;;;;;;;39.45;23.88;;;10.40;99.90;;;;;;5034958;28;20064;-78
2022/03/25 09:40:22;;;;;;;37.80;23.25;;;10.50;99.90;;;;;;5040696;28;20053;-79
2022/03/25 09:42:50;;;;;;;39.97;23.77;;;10.60;99.90;;;;;;5049452;28;20045;-78
2022/03/25 09:45:16;;;;;;;38.58;24.58;;;10.70;99.90;;;;;;5049102;28;20072;-78
2022/03/25 09:47:43;;;;;;;36.58;22.63;;;10.80;99.90;;;;;;5068599;28;20036;-78
2022/03/25 09:50:12;;;;;;;36.95;23.10;;;10.90;98.70;;;;;;5070015;28;20129;-78
2022/03/25 09:52:39;;;;;;;38.17;24.60;;;11.00;97.60;;;;;;5052129;28;20135;-78
2022/03/25 09:55:06;;;;;;;39.58;24.05;;;11.00;97.70;;;;;;5046729;28;20137;-78
2022/03/25 09:57:32;;;;;;;41.22;24.30;;;11.10;97.20;;;;;;5047627;28;20111;-78
2022/03/25 09:59:58;;;;;;;38.75;24.05;;;11.10;96.60;;;;;;5048889;28;20132;-78
2022/03/25 10:02:26;;;;;;;38.72;23.55;;;11.20;95.60;;;;;;5049834;28;20120;-78
2022/03/25 10:04:53;;;;;;;39.35;24.23;;;11.20;93.50;;;;;;5049614;28;20102;-78
2022/03/25 10:07:22;;;;;;;39.75;24.30;;;11.20;95.20;;;;;;5048851;28;20045;-78
2022/03/25 10:09:50;;;;;;;39.25;25.38;;;11.30;94.40;;;;;;5049867;28;20049;-78
2022/03/25 10:12:21;;;;;;;39.25;24.88;;;11.40;94.80;;;;;;5049515;28;20699;-77
2022/03/25 10:14:51;;;;;;;36.20;23.48;;;11.50;94.70;;;;;;5048963;28;20063;-78
2022/03/25 10:17:17;;;;;;;37.97;23.88;;;11.60;94.80;;;;;;5049453;28;20037;-78
2022/03/25 10:19:52;;;;;;;38.00;24.02;;;11.70;95.10;;;;;;5048732;28;20037;-77
2022/03/25 10:22:18;;;;;;;35.47;23.02;;;11.80;90.70;;;;;;5061999;28;20086;-78
2022/03/25 10:24:49;;;;;;;38.15;23.17;;;11.90;93.20;;;;;;5049401;28;20470;-78
2022/03/25 10:27:22;;;;;;;41.60;23.88;;;12.00;92.30;;;;;;5060194;28;20607;-76
2022/03/25 10:29:50;;;;;;;36.10;22.50;;;12.10;91.90;;;;;;5035467;28;20124;-76
2022/03/25 10:32:19;;;;;;;32.03;21.48;;;12.20;91.30;;;;;;5039118;28;20045;-77
2022/03/25 10:35:06;;;;;;;34.63;20.90;;;12.20;90.00;;;;;;5048989;28;20048;-77
2022/03/25 10:37:32;;;;;;;32.75;20.42;;;12.30;86.20;;;;;;5035984;28;20522;-77
2022/03/25 10:39:58;;;;;;;35.20;20.73;;;12.50;82.60;;;;;;5049705;28;20129;-77
2022/03/25 10:42:24;;;;;;;35.42;21.23;;;12.50;85.00;;;;;;5049114;28;20071;-77
2022/03/25 10:44:49;;;;;;;31.98;20.20;;;12.60;84.30;;;;;;5049154;28;20052;-77
2022/03/25 10:47:15;;;;;;;34.72;20.40;;;12.70;83.80;;;;;;5053253;28;20052;-76
2022/03/25 10:49:46;;;;;;;31.40;20.75;;;12.80;84.20;;;;;;5051516;28;20121;-76
2022/03/25 10:52:32;;;;;;;31.67;19.65;;;12.80;83.10;;;;;;5051014;28;20198;-76
2022/03/25 10:55:22;;;;;;;38.17;22.65;;;12.90;81.60;;;;;;5048194;28;20049;-76
2022/03/25 10:57:56;;;;;;;36.75;21.38;;;13.00;81.20;;;;;;5052377;28;20145;-76
2022/03/25 11:00:22;;;;;;;32.78;20.95;;;13.00;80.80;;;;;;5044979;28;20132;-76
2022/03/25 11:02:48;;;;;;;34.05;21.92;;;13.10;81.60;;;;;;5038485;28;20041;-76
2022/03/25 11:05:14;;;;;;;35.85;21.63;;;13.20;81.90;;;;;;5052928;28;20051;-76
2022/03/25 11:07:43;;;;;;;35.10;21.40;;;13.30;81.00;;;;;;5061142;28;20351;-77
2022/03/25 11:10:14;;;;;;;34.17;21.63;;;13.40;78.90;;;;;;5066642;28;20117;-77
2022/03/25 11:12:46;;;;;;;34.85;22.45;;;13.40;79.80;;;;;;5052330;28;20045;-77
2022/03/25 11:15:13;;;;;;;38.20;22.27;;;13.50;80.10;;;;;;5052913;28;20060;-77
2022/03/25 11:17:41;;;;;;;37.40;22.73;;;13.60;80.50;;;;;;5052141;28;20507;-76
2022/03/25 11:20:12;;;;;;;34.13;21.23;;;13.70;78.60;;;;;;5052143;28;20069;-76
2022/03/25 11:22:45;;;;;;;37.00;21.83;;;13.70;78.80;;;;;;5052005;28;20040;-76
2022/03/25 11:25:13;;;;;;;34.58;22.13;;;13.70;79.50;;;;;;5052498;28;20455;-76
2022/03/25 11:27:44;;;;;;;37.83;22.20;;;13.80;78.30;;;;;;5061610;28;20048;-76
2022/03/25 11:30:13;;;;;;;35.28;21.83;;;13.90;77.00;;;;;;5051824;28;20053;-76
2022/03/25 11:33:09;;;;;;;35.13;21.85;;;13.90;76.50;;;;;;5052461;28;20201;-77
2022/03/25 11:35:42;;;;;;;38.65;21.75;;;13.90;76.40;;;;;;5043678;28;20483;-77
2022/03/25 11:38:14;;;;;;;34.47;21.73;;;14.00;77.50;;;;;;5049975;28;20041;-77
2022/03/25 11:40:45;;;;;;;33.83;22.13;;;14.10;77.80;;;;;;5050569;28;20371;-78
2022/03/25 11:43:25;;;;;;;33.78;21.58;;;14.10;78.40;;;;;;5050504;28;20411;-76
2022/03/25 11:46:00;;;;;;;30.58;19.30;;;14.20;75.60;;;;;;5061817;28;20512;-77
2022/03/25 11:48:25;;;;;;;33.38;20.73;;;14.30;74.10;;;;;;5032505;28;20421;-77
2022/03/25 11:50:54;;;;;;;33.10;20.55;;;14.30;75.30;;;;;;5037595;28;20076;-77
2022/03/25 11:53:23;;;;;;;33.50;21.48;;;14.40;75.30;;;;;;5045719;28;20068;-77
2022/03/25 11:56:05;;;;;;;35.83;21.40;;;14.50;74.90;;;;;;5048601;28;20950;-77
2022/03/25 11:58:39;;;;;;;34.05;20.70;;;14.50;74.70;;;;;;5060684;28;20047;-76
2022/03/25 12:01:08;;;;;;;31.48;20.90;;;14.60;76.30;;;;;;5051412;28;20041;-78
2022/03/25 12:03:42;;;;;;;35.28;20.88;;;14.70;76.70;;;;;;5052185;28;20040;-77
2022/03/25 12:06:08;;;;;;;33.63;21.85;;;14.70;76.80;;;;;;5051782;28;20111;-77
2022/03/25 12:08:38;;;;;;;32.72;21.05;;;14.80;76.10;;;;;;5051701;28;20044;-76
2022/03/25 12:11:06;;;;;;;34.63;20.73;;;14.80;75.80;;;;;;5059339;28;20067;-76
2022/03/25 12:13:51;;;;;;;34.08;21.88;;;14.90;74.90;;;;;;5029986;28;20087;-77
2022/03/25 12:16:47;;;;;;;31.63;20.40;;;14.90;71.70;;;;;;5048819;28;20080;-77
2022/03/25 12:19:25;;;;;;;34.50;21.13;;;14.90;72.50;;;;;;5047922;28;20045;-76
2022/03/25 12:21:57;;;;;;;38.00;21.48;;;14.90;71.90;;;;;;5030069;28;20053;-77
2022/03/25 12:24:24;;;;;;;35.95;21.73;;;14.90;72.20;;;;;;5049850;28;20057;-79
2022/03/25 12:26:57;;;;;;;31.70;20.70;;;15.00;72.80;;;;;;5045625;28;20136;-78
2022/03/25 12:29:31;;;;;;;35.00;21.15;;;15.10;73.90;;;;;;5046995;28;20090;-78
2022/03/25 12:32:00;;;;;;;31.33;19.58;;;15.10;73.70;;;;;;5048025;28;20056;-77
2022/03/25 12:34:48;;;;;;;34.00;19.92;;;15.20;73.10;;;;;;5049411;28;20116;-76
2022/03/25 12:37:26;;;;;;;34.13;20.35;;;15.20;69.20;;;;;;5047749;28;20061;-77
2022/03/25 12:39:52;;;;;;;32.70;21.25;;;15.30;70.40;;;;;;5043779;28;20491;-76